Flight Track Log - Related Links

Times and Time Zones

All times are in EDT time to prevent confusion due to time zone crossing. See the EJA930 flight status page for this flight to view local times or setup timezone preferences in your user account.

Time Position Orientation Groundspeed Altitude Reporting Facility
EDT Latitude Longitude Course Direction KTS MPH feet Rate Location/Type
Mon 10:46:44 AM 39.5931 -107.0083 37° Northeast 236 272 11,700  Level Denver Center
Mon 10:47:46 AM 39.6561 -107.0433 337° Northwest 264 304 16,800 4,355 Climbing Denver Center
Mon 10:48:48 AM 39.7325 -107.0678 346° North 271 312 20,700 2,032 Climbing Denver Center
Mon 10:49:50 AM 39.7967 -107.0042 37° Northeast 329 379 21,000 145 Climbing Denver Center
Mon 10:50:00 AM 40.1167 -106.3032 90° East  Level FlightAware Approximate
Mon 10:50:52 AM 39.8408 -106.8889 63° Northeast 356 410 21,000  Level Denver Center
Mon 10:51:00 AM 40.1949 -106.2218 37° Northeast  Level FlightAware Approximate
Mon 10:52:00 AM 40.2752 -106.1417 37° Northeast  Level FlightAware Approximate
Mon 10:52:07 AM 39.8944 -106.7436 64° Northeast 368 423 21,000  Level Denver Center
Mon 10:53:09 AM 39.9189 -106.6100 77° East 385 443 21,000  Level Denver Center
Mon 10:54:11 AM 39.8836 -106.4678 108° East 411 473 21,000 -339 Level Denver Center
Mon 10:55:13 AM 39.8472 -106.3250 108° East 414 476 20,300 -1,065 Descending Denver Center
Mon 10:56:15 AM 39.8078 -106.1719 109° East 437 503 18,800 -1,452 Descending Denver Center
Mon 10:57:17 AM 39.7569 -105.9803 109° East 457 526 17,300 -871 Descending Denver Center
Mon 10:58:19 AM 39.7144 -105.8219 109° East 462 532 17,000 -435 Descending Denver Center
Mon 10:59:21 AM 39.6758 -105.6792 109° East 423 487 16,400 -429 Descending Denver Center
Mon 11:00:25 AM 39.6358 -105.5283 109° East 415 478 16,100 -714 Descending Denver Center
Mon 11:01:27 AM 39.6017 -105.3808 107° East 402 463 14,900 -1,500 Descending Denver Center
Mon 11:02:29 AM 39.5903 -105.2394 96° East 398 458 13,000 -1,403 Descending Denver Center
Mon 11:03:31 AM 39.5803 -105.1106 96° East 341 392 12,000 -1,645 Descending Denver Center
Mon 11:04:33 AM 39.5511 -105.0125 111° Southeast 298 343 9,600 -1,364 Descending Denver Center
Mon 11:06:27 AM 39.4667 -104.8833 130° Southeast 254 292 8,000 -828 Descending Denver TRACON
Mon 11:07:27 AM 39.5000 -104.8500 38° Northeast 186 214 7,200 -905 Descending Denver TRACON
Mon 11:08:33 AM 39.5500 -104.8500 360° North 134 154 6,100 -1,000 Descending Denver TRACON
Mon 11:10:00 AM 39.5701 -104.8493 38° Northeast  Level Estimated

Login

Don't have an account? Register now (free) for customized features, flight alerts, and more!